Midnight Dream — 3EKF5 — position and weather

sailwx.info

Track history (hours):
 
Tides and Currents Weather Stations Pressure Air Temp Water Temp Dewpoint Dewpoint Depression Visibility Wind Speed Wind Dir Waves Ship Positions

Midnight Dream

Last reported at 2017-Jan-15 09:33 UTC. Time now 2017-Apr-28 10:21 UTC.
Position N 18°17' W 064°51'.
Warning: this ship's position is months out of date.

Length 90 m; draft 4.5 m.

Type: Cargo ship. MMSI: 372708000.

Date/timePositionNaut miles runAvg speedWind from/ knotsBaromVisibWave heightAir tempDewpointWater temp
2017-Jan-15 09:33N 18°17' W 064°51'10 9.9
2017-Jan-15 08:33N 18°17' W 064°41'  
2017-Jan-12 22:24N 18°25' W 064°36'0 0.4
2017-Jan-12 21:25N 18°25' W 064°36'0 0.0
2017-Jan-12 20:19N 18°25' W 064°36'0 0.0
2017-Jan-12 19:31N 18°25' W 064°36'0 0.0
2017-Jan-12 18:31N 18°25' W 064°36'0 0.0
2017-Jan-12 17:31N 18°25' W 064°36'0 0.0
2017-Jan-12 16:30N 18°25' W 064°36'0 0.0
2017-Jan-12 15:24N 18°25' W 064°36'0 0.0
2017-Jan-12 14:30N 18°25' W 064°36'0 0.0
2017-Jan-12 13:30N 18°25' W 064°36'0 0.1
2017-Jan-12 10:33N 18°25' W 064°36'1 0.9
2017-Jan-12 09:30N 18°24' W 064°35'0 0.0
2017-Jan-12 08:30N 18°24' W 064°35'0 0.0
2017-Jan-12 07:30N 18°24' W 064°35'0 0.0
2017-Jan-12 06:30N 18°24' W 064°35'0 0.0
2017-Jan-12 05:30N 18°24' W 064°35'0 0.0
2017-Jan-12 04:30N 18°24' W 064°35'0 0.0
2017-Jan-12 03:33N 18°24' W 064°35'0 0.0
2017-Jan-12 02:33N 18°24' W 064°35'0 0.0
2017-Jan-12 01:33N 18°24' W 064°35'0 0.0
2017-Jan-12 00:27N 18°24' W 064°35'0 0.0
2017-Jan-11 23:33N 18°24' W 064°35'0 0.0
2017-Jan-11 22:27N 18°24' W 064°35'0 0.0
2017-Jan-11 21:33N 18°24' W 064°35'0 0.0
2017-Jan-11 20:33N 18°24' W 064°35'0 0.0
2017-Jan-11 19:33N 18°24' W 064°35'0 0.0
2017-Jan-11 18:33N 18°24' W 064°35'0 0.0
2017-Jan-11 17:27N 18°24' W 064°35'0 0.0
2017-Jan-11 16:33N 18°24' W 064°35'0 0.0
2017-Jan-11 15:33N 18°24' W 064°35'3 2.9
2017-Jan-11 14:33N 18°23' W 064°33'88 9.7
2017-Jan-11 05:33N 17°45' W 063°09'22 9.9
2017-Jan-11 03:18N 17°36' W 062°48'910.2
2017-Jan-11 02:25N 17°32' W 062°39'910.4
2017-Jan-11 01:33N 17°28' W 062°31'1010.1
2017-Jan-11 00:33N 17°24' W 062°21'1010.0
2017-Jan-10 23:33N 17°20' W 062°12'1010.3
2017-Jan-10 22:33N 17°14' W 062°03'1110.5
2017-Jan-10 21:33N 17°08' W 061°54'2 2.3
2017-Jan-10 20:31N 17°07' W 061°51'0 0.0
2017-Jan-10 19:31N 17°07' W 061°51'0 0.0
2017-Jan-10 18:31N 17°07' W 061°51'0 0.0
2017-Jan-10 17:31N 17°07' W 061°51'7 7.0
2017-Jan-10 16:33N 17°07' W 061°58'1110.6
2017-Jan-10 15:33N 17°07' W 062°09'62 5.1
2017-Jan-10 03:32N 17°43' W 063°02'1010.2
2017-Jan-10 02:33N 17°52' W 063°05'1110.5
2017-Jan-10 01:31N 18°02' W 063°09'5 4.3
2017-Jan-10 00:23N 18°05' W 063°05'0 0.0
2017-Jan-09 23:29N 18°05' W 063°05'8 8.5
2017-Jan-09 22:30N 18°07' W 063°14'1212.4
2017-Jan-09 21:32N 18°10' W 063°26'6112.0
2017-Jan-09 16:30N 18°24' W 064°28'8 1.6
2017-Jan-09 11:33N 18°23' W 064°36'1010.5
2017-Jan-09 10:33N 18°16' W 064°45'10 0.4
2017-Jan-08 10:09N 18°18' W 064°55'610.0
2017-Jan-08 09:33N 18°17' W 064°48'9 9.3
2017-Jan-08 08:33N 18°19' W 064°39'  
2017-Jan-05 11:16N 18°25' W 064°36'1 1.1
2017-Jan-05 10:28N 18°24' W 064°36'  
Track history (hours):
 
Tides and Currents Weather Stations Pressure Air Temp Water Temp Dewpoint Dewpoint Depression Visibility Wind Speed Wind Dir Waves Ship Positions

Midnight Dream

Last reported at 2017-Jan-15 09:33 UTC. Time now 2017-Apr-28 10:21 UTC.
Position N 18°17' W 064°51'.
Warning: this ship's position is months out of date.

Length 90 m; draft 4.5 m.

Type: Cargo ship. MMSI: 372708000.

Date/timePositionNaut miles runAvg speedWind from/ knotsBaromVisibWave heightAir tempDewpointWater temp
2017-Jan-15 09:33N 18°17' W 064°51'10 9.9
2017-Jan-15 08:33N 18°17' W 064°41'  
2017-Jan-12 22:24N 18°25' W 064°36'0 0.4
2017-Jan-12 21:25N 18°25' W 064°36'0 0.0
2017-Jan-12 20:19N 18°25' W 064°36'0 0.0
2017-Jan-12 19:31N 18°25' W 064°36'0 0.0
2017-Jan-12 18:31N 18°25' W 064°36'0 0.0
2017-Jan-12 17:31N 18°25' W 064°36'0 0.0
2017-Jan-12 16:30N 18°25' W 064°36'0 0.0
2017-Jan-12 15:24N 18°25' W 064°36'0 0.0
2017-Jan-12 14:30N 18°25' W 064°36'0 0.0
2017-Jan-12 13:30N 18°25' W 064°36'0 0.1
2017-Jan-12 10:33N 18°25' W 064°36'1 0.9
2017-Jan-12 09:30N 18°24' W 064°35'0 0.0
2017-Jan-12 08:30N 18°24' W 064°35'0 0.0
2017-Jan-12 07:30N 18°24' W 064°35'0 0.0
2017-Jan-12 06:30N 18°24' W 064°35'0 0.0
2017-Jan-12 05:30N 18°24' W 064°35'0 0.0
2017-Jan-12 04:30N 18°24' W 064°35'0 0.0
2017-Jan-12 03:33N 18°24' W 064°35'0 0.0
2017-Jan-12 02:33N 18°24' W 064°35'0 0.0
2017-Jan-12 01:33N 18°24' W 064°35'0 0.0
2017-Jan-12 00:27N 18°24' W 064°35'0 0.0
2017-Jan-11 23:33N 18°24' W 064°35'0 0.0
2017-Jan-11 22:27N 18°24' W 064°35'0 0.0
2017-Jan-11 21:33N 18°24' W 064°35'0 0.0
2017-Jan-11 20:33N 18°24' W 064°35'0 0.0
2017-Jan-11 19:33N 18°24' W 064°35'0 0.0
2017-Jan-11 18:33N 18°24' W 064°35'0 0.0
2017-Jan-11 17:27N 18°24' W 064°35'0 0.0
2017-Jan-11 16:33N 18°24' W 064°35'0 0.0
2017-Jan-11 15:33N 18°24' W 064°35'3 2.9
2017-Jan-11 14:33N 18°23' W 064°33'88 9.7
2017-Jan-11 05:33N 17°45' W 063°09'22 9.9
2017-Jan-11 03:18N 17°36' W 062°48'910.2
2017-Jan-11 02:25N 17°32' W 062°39'910.4
2017-Jan-11 01:33N 17°28' W 062°31'1010.1
2017-Jan-11 00:33N 17°24' W 062°21'1010.0
2017-Jan-10 23:33N 17°20' W 062°12'1010.3
2017-Jan-10 22:33N 17°14' W 062°03'1110.5
2017-Jan-10 21:33N 17°08' W 061°54'2 2.3
2017-Jan-10 20:31N 17°07' W 061°51'0 0.0
2017-Jan-10 19:31N 17°07' W 061°51'0 0.0
2017-Jan-10 18:31N 17°07' W 061°51'0 0.0
2017-Jan-10 17:31N 17°07' W 061°51'7 7.0
2017-Jan-10 16:33N 17°07' W 061°58'1110.6
2017-Jan-10 15:33N 17°07' W 062°09'62 5.1
2017-Jan-10 03:32N 17°43' W 063°02'1010.2
2017-Jan-10 02:33N 17°52' W 063°05'1110.5
2017-Jan-10 01:31N 18°02' W 063°09'5 4.3
2017-Jan-10 00:23N 18°05' W 063°05'0 0.0
2017-Jan-09 23:29N 18°05' W 063°05'8 8.5
2017-Jan-09 22:30N 18°07' W 063°14'1212.4
2017-Jan-09 21:32N 18°10' W 063°26'6112.0
2017-Jan-09 16:30N 18°24' W 064°28'8 1.6
2017-Jan-09 11:33N 18°23' W 064°36'1010.5
2017-Jan-09 10:33N 18°16' W 064°45'10 0.4
2017-Jan-08 10:09N 18°18' W 064°55'610.0
2017-Jan-08 09:33N 18°17' W 064°48'9 9.3
2017-Jan-08 08:33N 18°19' W 064°39'  
2017-Jan-05 11:16N 18°25' W 064°36'1 1.1
2017-Jan-05 10:28N 18°24' W 064°36'  

Dump ship's entire track history